Time;durP1;ratioP1;P1;durP2;ratioP2;P2;SDS_P1;SDS_P2;PMS_P1;PMS_P2;Temp;Humidity;BMP_temperature;BMP_pressure;BME280_temperature;BME280_humidity;BME280_pressure;Samples;Min_cycle;Max_cycle;Signal;HPM_P1;HPM_P2
2022/01/07 00:01:13;;;;;;;7.50;3.77;;;5.40;99.90;;;;;;5065432;28;20509;-41
2022/01/07 00:03:38;;;;;;;6.17;2.90;;;5.60;99.90;;;;;;5054042;28;20228;-41
2022/01/07 00:06:04;;;;;;;5.40;3.00;;;5.50;99.90;;;;;;5066612;28;20193;-42
2022/01/07 00:08:30;;;;;;;5.57;3.60;;;5.50;99.90;;;;;;5066623;28;20235;-41
2022/01/07 00:10:56;;;;;;;5.77;3.43;;;5.20;99.90;;;;;;5066000;28;20550;-41
2022/01/07 00:13:23;;;;;;;8.17;3.77;;;5.10;99.90;;;;;;5066517;28;20411;-41
2022/01/07 00:15:49;;;;;;;4.10;3.10;;;5.20;99.90;;;;;;5066912;28;20498;-44
2022/01/07 00:18:15;;;;;;;3.97;3.13;;;5.40;99.90;;;;;;5062659;28;20840;-42
2022/01/07 00:20:41;;;;;;;6.30;3.10;;;5.40;99.90;;;;;;5066009;28;20439;-42
2022/01/07 00:23:07;;;;;;;8.17;3.63;;;5.40;99.90;;;;;;5064838;28;20435;-41
2022/01/07 00:25:33;;;;;;;4.40;2.97;;;5.40;99.90;;;;;;5066232;28;20513;-43
2022/01/07 00:27:59;;;;;;;4.90;3.07;;;5.40;99.90;;;;;;5066745;28;20801;-42
2022/01/07 00:30:25;;;;;;;5.53;3.80;;;5.40;99.90;;;;;;5066057;28;20279;-42
2022/01/07 00:32:52;;;;;;;8.37;4.30;;;5.20;99.90;;;;;;5058719;28;20354;-41
2022/01/07 00:35:19;;;;;;;7.00;4.00;;;5.50;99.90;;;;;;5063188;28;20469;-41
2022/01/07 00:37:45;;;;;;;9.77;4.00;;;5.30;99.90;;;;;;5066672;28;20430;-42
2022/01/07 00:40:14;;;;;;;12.07;3.70;;;5.10;99.90;;;;;;5066040;28;20449;-41
2022/01/07 00:42:39;;;;;;;11.90;3.93;;;5.30;99.90;;;;;;5066688;28;20430;-41
2022/01/07 00:45:05;;;;;;;8.33;3.90;;;5.40;99.90;;;;;;5066731;28;20773;-41
2022/01/07 00:47:31;;;;;;;4.50;3.10;;;5.40;99.90;;;;;;5062395;28;20194;-41
2022/01/07 00:49:58;;;;;;;7.83;3.53;;;5.40;99.90;;;;;;5059416;28;20454;-41
2022/01/07 00:52:24;;;;;;;11.30;3.60;;;5.50;99.90;;;;;;5066230;28;20613;-44
2022/01/07 00:54:50;;;;;;;8.10;3.77;;;5.50;99.90;;;;;;5066593;28;20419;-41
2022/01/07 00:57:16;;;;;;;5.47;3.70;;;5.30;99.90;;;;;;5066440;28;20438;-42
2022/01/07 00:59:45;;;;;;;6.33;3.57;;;5.20;99.90;;;;;;5066272;28;20185;-41
2022/01/07 01:02:10;;;;;;;10.90;4.03;;;5.00;99.90;;;;;;5064913;28;20477;-42
2022/01/07 01:04:36;;;;;;;6.77;3.63;;;5.30;99.90;;;;;;5057232;28;20427;-41
2022/01/07 01:07:02;;;;;;;7.90;4.00;;;5.30;99.90;;;;;;5066492;28;20427;-41
2022/01/07 01:09:28;;;;;;;8.00;3.70;;;5.30;99.90;;;;;;5066151;28;20209;-44
2022/01/07 01:11:54;;;;;;;6.87;3.47;;;5.40;99.90;;;;;;5065870;28;20921;-42
2022/01/07 01:14:19;;;;;;;6.60;4.47;;;5.20;99.90;;;;;;5066385;28;20196;-42
2022/01/07 01:16:47;;;;;;;7.90;3.87;;;5.30;99.90;;;;;;5087158;28;20199;-41
2022/01/07 01:19:12;;;;;;;7.30;4.10;;;5.40;99.90;;;;;;5064747;28;20937;-41
2022/01/07 01:21:38;;;;;;;8.03;4.10;;;5.30;99.90;;;;;;5068557;28;20426;-41
2022/01/07 01:24:04;;;;;;;6.37;4.20;;;5.20;99.90;;;;;;5070167;28;20250;-40
2022/01/07 01:26:30;;;;;;;7.93;3.97;;;5.10;99.90;;;;;;5069503;28;20725;-40
2022/01/07 01:28:56;;;;;;;5.60;4.17;;;5.00;99.90;;;;;;5069895;28;20423;-41
2022/01/07 01:31:21;;;;;;;6.47;3.97;;;5.30;99.90;;;;;;5068903;28;20592;-41
2022/01/07 01:33:48;;;;;;;7.27;3.40;;;5.10;99.90;;;;;;5060613;28;20653;-41
2022/01/07 01:36:14;;;;;;;9.80;4.40;;;5.30;99.90;;;;;;5068651;28;20188;-41
2022/01/07 01:38:40;;;;;;;11.07;4.50;;;5.10;99.90;;;;;;5069693;28;21133;-40
2022/01/07 01:41:08;;;;;;;6.73;4.10;;;5.40;99.90;;;;;;5068729;28;20461;-44
2022/01/07 01:43:34;;;;;;;5.90;3.60;;;5.40;99.90;;;;;;5069853;28;20464;-41
2022/01/07 01:46:00;;;;;;;6.87;3.77;;;5.30;99.90;;;;;;5069411;28;20459;-43
2022/01/07 01:48:26;;;;;;;5.97;3.90;;;5.30;99.90;;;;;;5063251;28;20466;-43
2022/01/07 01:50:55;;;;;;;7.30;4.30;;;5.20;99.90;;;;;;5065043;28;20450;-41
2022/01/07 01:53:21;;;;;;;6.80;4.03;;;5.10;99.90;;;;;;5068066;28;20930;-41
2022/01/07 01:55:47;;;;;;;7.10;3.80;;;5.10;99.90;;;;;;5069457;28;20541;-41
2022/01/07 01:58:13;;;;;;;7.07;5.30;;;5.20;99.90;;;;;;5069180;28;20428;-42
2022/01/07 02:00:40;;;;;;;6.00;4.00;;;5.20;99.90;;;;;;5068678;28;20643;-41
2022/01/07 02:03:05;;;;;;;5.87;3.90;;;5.30;99.90;;;;;;5063307;28;20190;-41
2022/01/07 02:05:32;;;;;;;7.93;4.00;;;5.40;99.90;;;;;;5060767;28;20445;-41
2022/01/07 02:07:58;;;;;;;7.20;3.60;;;5.20;99.90;;;;;;5069107;28;20650;-43
2022/01/07 02:10:24;;;;;;;5.67;3.93;;;5.20;99.90;;;;;;5068805;28;20498;-41
2022/01/07 02:12:50;;;;;;;8.07;3.80;;;5.50;99.90;;;;;;5068874;28;20419;-41
2022/01/07 02:15:17;;;;;;;6.73;3.73;;;5.30;99.90;;;;;;5072701;28;20422;-44
2022/01/07 02:17:45;;;;;;;6.17;4.20;;;5.40;99.90;;;;;;5084831;28;20196;-41
2022/01/07 02:20:14;;;;;;;7.43;4.50;;;5.30;99.90;;;;;;5060018;28;20489;-41
2022/01/07 02:22:39;;;;;;;6.37;3.90;;;5.30;99.90;;;;;;5068882;28;20431;-44
2022/01/07 02:25:06;;;;;;;9.20;4.43;;;5.30;99.90;;;;;;5069023;28;20531;-41
2022/01/07 02:27:38;;;;;;;9.50;4.47;;;5.40;99.90;;;;;;5068218;28;20189;-43
2022/01/07 02:30:07;;;;;;;5.83;3.80;;;5.40;99.90;;;;;;5068686;28;20992;-43
2022/01/07 02:32:33;;;;;;;8.60;4.37;;;5.20;99.90;;;;;;5067006;28;20464;-41
2022/01/07 02:34:59;;;;;;;9.30;4.60;;;5.20;99.90;;;;;;5059483;28;20427;-42
2022/01/07 02:37:24;;;;;;;7.00;4.60;;;5.10;99.90;;;;;;5068684;28;20710;-41
2022/01/07 02:39:51;;;;;;;8.60;4.33;;;5.20;99.90;;;;;;5054924;28;20676;-41
2022/01/07 02:42:17;;;;;;;6.70;4.23;;;5.10;99.90;;;;;;5068529;28;20192;-46
2022/01/07 02:44:43;;;;;;;4.80;4.13;;;5.00;99.90;;;;;;5068480;28;20443;-43
2022/01/07 02:47:08;;;;;;;6.97;4.23;;;5.10;99.90;;;;;;5068242;28;20214;-42
2022/01/07 02:49:34;;;;;;;6.23;3.57;;;5.10;99.90;;;;;;5059004;28;21001;-40
2022/01/07 02:52:00;;;;;;;9.00;4.17;;;5.00;99.90;;;;;;5068000;28;20422;-45
2022/01/07 02:54:27;;;;;;;8.03;4.40;;;4.90;99.90;;;;;;5068324;28;20207;-42
2022/01/07 02:56:52;;;;;;;7.97;4.23;;;4.90;99.90;;;;;;5068262;28;20590;-42
2022/01/07 02:59:18;;;;;;;7.10;4.30;;;5.00;99.90;;;;;;5067998;28;20514;-42
2022/01/07 03:01:44;;;;;;;8.43;4.00;;;4.90;99.90;;;;;;5067138;28;20594;-42
2022/01/07 03:04:09;;;;;;;7.17;4.37;;;4.70;99.90;;;;;;5058603;28;20220;-41
2022/01/07 03:06:36;;;;;;;5.90;3.77;;;4.70;99.90;;;;;;5067532;28;20699;-42
2022/01/07 03:09:04;;;;;;;5.67;4.30;;;4.90;99.90;;;;;;5068430;28;20189;-42
2022/01/07 03:11:30;;;;;;;6.90;3.97;;;4.90;99.90;;;;;;5067553;28;20501;-44
2022/01/07 03:13:56;;;;;;;6.37;4.50;;;4.70;99.90;;;;;;5068045;28;20431;-42
2022/01/07 03:16:22;;;;;;;7.80;4.40;;;4.90;99.90;;;;;;5080808;28;21120;-41
2022/01/07 03:18:47;;;;;;;7.77;5.13;;;5.00;99.90;;;;;;5075641;28;20252;-42
2022/01/07 03:21:14;;;;;;;8.50;5.10;;;4.60;99.90;;;;;;5062946;28;20427;-41
2022/01/07 03:23:41;;;;;;;7.87;4.77;;;4.60;99.90;;;;;;5067927;28;20180;-42
2022/01/07 03:26:11;;;;;;;7.03;4.33;;;4.70;99.90;;;;;;5067579;28;20473;-44
2022/01/07 03:28:38;;;;;;;10.30;4.20;;;4.70;99.90;;;;;;5067574;28;20452;-42
2022/01/07 03:31:05;;;;;;;7.30;3.97;;;4.50;99.90;;;;;;5066829;28;20459;-43
2022/01/07 03:33:31;;;;;;;9.10;4.60;;;4.70;99.90;;;;;;5062690;28;20435;-42
2022/01/07 03:35:56;;;;;;;6.83;4.50;;;4.60;99.90;;;;;;5061783;28;20439;-43
2022/01/07 03:38:22;;;;;;;6.47;3.80;;;4.60;99.90;;;;;;5066702;28;20177;-41
2022/01/07 03:40:49;;;;;;;6.23;3.93;;;4.80;99.90;;;;;;5066569;28;20191;-42
2022/01/07 03:43:15;;;;;;;7.33;4.73;;;4.80;99.90;;;;;;5067278;28;20426;-41
2022/01/07 03:45:41;;;;;;;7.97;5.20;;;4.70;99.90;;;;;;5067535;28;20423;-44
2022/01/07 03:48:07;;;;;;;7.67;4.27;;;4.80;99.90;;;;;;5083269;28;20431;-40
2022/01/07 03:50:33;;;;;;;8.43;4.30;;;4.60;99.90;;;;;;5050699;28;20472;-41
2022/01/07 03:52:59;;;;;;;7.80;3.67;;;4.40;99.90;;;;;;5067131;28;20185;-42
2022/01/07 03:55:27;;;;;;;7.20;4.60;;;4.70;99.90;;;;;;5067526;28;20476;-42
2022/01/07 03:57:54;;;;;;;8.70;5.20;;;4.60;99.90;;;;;;5067183;28;20439;-41
2022/01/07 04:00:33;;;;;;;5.20;4.40;;;4.40;99.90;;;;;;5067228;28;20903;-42
2022/01/07 04:03:00;;;;;;;7.60;4.67;;;4.60;99.90;;;;;;5067319;28;20430;-41
2022/01/07 04:05:26;;;;;;;8.23;4.77;;;4.30;99.90;;;;;;5054397;28;20463;-42
2022/01/07 04:07:52;;;;;;;10.50;4.30;;;4.40;99.90;;;;;;5067049;28;20961;-43
2022/01/07 04:10:18;;;;;;;6.57;4.10;;;4.40;99.90;;;;;;5066403;28;20217;-42
2022/01/07 04:12:44;;;;;;;6.60;4.10;;;4.60;99.90;;;;;;5066949;28;20228;-41
2022/01/07 04:15:10;;;;;;;9.50;4.60;;;4.40;99.90;;;;;;5070501;28;20567;-41
2022/01/07 04:17:41;;;;;;;5.83;4.07;;;4.50;99.90;;;;;;5087333;28;20423;-42
2022/01/07 04:20:09;;;;;;;10.10;4.07;;;4.40;99.90;;;;;;5066656;28;20435;-44
2022/01/07 04:22:36;;;;;;;6.03;4.70;;;4.40;99.90;;;;;;5066747;28;20434;-41
2022/01/07 04:25:04;;;;;;;6.87;4.77;;;4.60;99.90;;;;;;5066783;28;20691;-42
2022/01/07 04:27:30;;;;;;;7.77;4.20;;;4.40;99.90;;;;;;5067051;28;20427;-42
2022/01/07 04:29:55;;;;;;;6.93;4.10;;;4.50;99.90;;;;;;5066593;28;20512;-41
2022/01/07 04:32:21;;;;;;;4.37;3.97;;;4.60;99.90;;;;;;5066970;28;20502;-42
2022/01/07 04:34:47;;;;;;;10.03;4.90;;;4.50;99.90;;;;;;5058788;28;20268;-42
2022/01/07 04:37:13;;;;;;;5.57;4.13;;;4.40;99.90;;;;;;5062756;28;21017;-41
2022/01/07 04:39:38;;;;;;;4.13;3.57;;;4.50;99.90;;;;;;5066105;28;20664;-43
2022/01/07 04:42:04;;;;;;;7.50;4.40;;;4.30;99.90;;;;;;5067065;28;20874;-41
2022/01/07 04:44:30;;;;;;;8.07;3.87;;;4.30;99.90;;;;;;5066846;28;20204;-42
2022/01/07 04:46:55;;;;;;;7.93;4.07;;;4.50;99.90;;;;;;5067050;28;20184;-41
2022/01/07 04:49:21;;;;;;;4.50;3.40;;;4.50;99.90;;;;;;5061389;28;20312;-41
2022/01/07 04:51:47;;;;;;;5.47;3.93;;;4.40;99.90;;;;;;5065505;28;20565;-43
2022/01/07 04:54:13;;;;;;;6.77;3.67;;;4.30;99.90;;;;;;5070320;28;20310;-41
2022/01/07 04:56:38;;;;;;;7.70;4.10;;;4.50;99.90;;;;;;5070737;28;20262;-41
2022/01/07 04:59:04;;;;;;;4.20;3.00;;;4.40;99.90;;;;;;5070663;28;20192;-43
2022/01/07 05:01:30;;;;;;;4.47;3.60;;;4.60;99.90;;;;;;5070143;28;20527;-43
2022/01/07 05:03:55;;;;;;;7.33;3.80;;;4.30;99.90;;;;;;5066976;28;20181;-41
2022/01/07 05:08:52;;;;;;;4.47;3.23;;;4.60;99.90;;;;;;5070355;28;20207;-41
2022/01/07 05:11:18;;;;;;;7.87;4.10;;;4.30;99.90;;;;;;5069969;28;20412;-42
2022/01/07 05:13:43;;;;;;;6.73;4.10;;;4.30;99.90;;;;;;5070523;28;20188;-43
2022/01/07 05:16:09;;;;;;;6.83;3.80;;;4.40;99.90;;;;;;5070448;28;20191;-42
2022/01/07 05:18:35;;;;;;;4.57;3.03;;;4.40;99.90;;;;;;5090134;28;20187;-45
2022/01/07 05:21:00;;;;;;;5.90;3.83;;;4.30;99.90;;;;;;5065373;28;20193;-41
2022/01/07 05:23:26;;;;;;;4.87;3.83;;;4.40;99.90;;;;;;5069995;28;20242;-42
2022/01/07 05:25:52;;;;;;;4.30;3.17;;;4.40;99.90;;;;;;5070013;28;20671;-42
2022/01/07 05:28:17;;;;;;;9.13;3.50;;;4.30;99.90;;;;;;5070193;28;20192;-42
2022/01/07 05:30:43;;;;;;;5.57;4.07;;;4.20;99.90;;;;;;5084921;28;20710;-43
2022/01/07 05:33:09;;;;;;;7.20;3.50;;;4.30;99.90;;;;;;5069456;28;20204;-43
2022/01/07 05:35:34;;;;;;;4.80;3.93;;;4.10;99.90;;;;;;5060690;28;20686;-41
2022/01/07 05:38:00;;;;;;;6.50;3.80;;;4.40;99.90;;;;;;5069959;28;20199;-42
2022/01/07 05:40:26;;;;;;;5.33;3.83;;;4.40;99.90;;;;;;5066499;28;20565;-41
2022/01/07 05:42:51;;;;;;;4.30;3.60;;;4.20;99.90;;;;;;5074519;28;20271;-42
2022/01/07 05:45:17;;;;;;;5.80;3.47;;;4.40;99.90;;;;;;5069933;28;20205;-41
2022/01/07 05:47:43;;;;;;;5.23;3.00;;;4.40;99.90;;;;;;5069779;28;20193;-41
2022/01/07 05:50:09;;;;;;;6.27;4.07;;;4.30;99.90;;;;;;5060008;28;20506;-42
2022/01/07 05:52:36;;;;;;;7.80;4.10;;;4.30;99.90;;;;;;5067133;28;20823;-42
2022/01/07 05:55:02;;;;;;;6.07;3.83;;;4.40;99.90;;;;;;5069757;28;20423;-42
2022/01/07 05:57:28;;;;;;;5.40;3.60;;;4.40;99.90;;;;;;5066775;28;20439;-43
2022/01/07 05:59:54;;;;;;;5.50;3.37;;;4.40;99.90;;;;;;5062140;28;20423;-45
2022/01/07 06:02:19;;;;;;;9.40;4.27;;;4.50;99.90;;;;;;5066272;28;20181;-43
2022/01/07 06:04:45;;;;;;;5.97;3.57;;;4.40;99.90;;;;;;5065069;28;20235;-42
2022/01/07 06:07:11;;;;;;;6.73;4.43;;;4.30;99.90;;;;;;5067109;28;20196;-42
2022/01/07 06:09:36;;;;;;;7.47;3.70;;;4.50;99.90;;;;;;5069184;28;20213;-42
2022/01/07 06:12:02;;;;;;;3.83;3.53;;;4.50;99.90;;;;;;5069162;28;20276;-41
2022/01/07 06:14:28;;;;;;;4.07;3.40;;;4.40;99.90;;;;;;5068008;28;20636;-42
2022/01/07 06:16:54;;;;;;;4.90;4.03;;;4.30;99.90;;;;;;5067782;28;20448;-42
2022/01/07 06:19:20;;;;;;;8.43;4.20;;;4.30;99.90;;;;;;5067704;28;20201;-45
2022/01/07 06:21:46;;;;;;;4.10;3.37;;;4.20;99.90;;;;;;5055355;28;20878;-42
2022/01/07 06:24:12;;;;;;;5.00;4.17;;;4.10;99.90;;;;;;5069276;28;20419;-42
2022/01/07 06:26:38;;;;;;;5.83;3.43;;;4.20;99.90;;;;;;5069178;28;20481;-42
2022/01/07 06:29:04;;;;;;;4.93;3.70;;;4.30;99.90;;;;;;5069116;28;20592;-42
2022/01/07 06:31:30;;;;;;;6.80;3.80;;;4.40;99.90;;;;;;5068582;28;20435;-42
2022/01/07 06:33:58;;;;;;;3.80;3.13;;;4.00;99.90;;;;;;5068122;28;20423;-42
2022/01/07 06:36:24;;;;;;;7.80;4.30;;;4.10;99.90;;;;;;5057848;28;20189;-42
2022/01/07 06:38:49;;;;;;;4.67;3.13;;;4.30;99.90;;;;;;5068646;28;20422;-43
2022/01/07 06:41:15;;;;;;;9.10;3.60;;;4.10;99.90;;;;;;5068311;28;20424;-42
2022/01/07 06:43:43;;;;;;;5.73;3.50;;;4.20;99.90;;;;;;5068803;28;20276;-42
2022/01/07 06:46:09;;;;;;;4.73;3.40;;;4.10;99.90;;;;;;5068763;28;20209;-43
2022/01/07 06:48:35;;;;;;;3.60;3.07;;;4.20;99.90;;;;;;5067141;28;20957;-42
2022/01/07 06:51:00;;;;;;;4.80;4.03;;;4.30;99.90;;;;;;5058984;28;20478;-42
2022/01/07 06:53:29;;;;;;;5.10;4.07;;;4.30;99.90;;;;;;5068406;28;20547;-43
2022/01/07 06:55:55;;;;;;;3.53;3.23;;;4.30;99.90;;;;;;5065449;28;20200;-45
2022/01/07 06:58:20;;;;;;;5.30;3.40;;;4.40;99.90;;;;;;5068607;28;20573;-44
2022/01/07 07:00:46;;;;;;;7.00;3.67;;;4.30;99.90;;;;;;5067394;28;20506;-43
2022/01/07 07:03:12;;;;;;;4.13;3.57;;;4.30;99.90;;;;;;5067410;28;20212;-42
2022/01/07 07:05:37;;;;;;;4.87;3.70;;;4.40;99.90;;;;;;5059473;28;20800;-42
2022/01/07 07:08:03;;;;;;;4.10;3.70;;;4.40;99.90;;;;;;5061299;28;20728;-42
2022/01/07 07:10:29;;;;;;;5.73;4.20;;;4.30;99.90;;;;;;5066879;28;20242;-44
2022/01/07 07:12:55;;;;;;;5.10;3.70;;;4.50;99.90;;;;;;5074530;28;20420;-41
2022/01/07 07:15:21;;;;;;;3.60;3.23;;;4.20;99.90;;;;;;5067660;28;20180;-42
2022/01/07 07:17:48;;;;;;;3.90;3.37;;;4.10;99.90;;;;;;5066790;28;20567;-44
2022/01/07 07:20:14;;;;;;;5.57;3.93;;;4.40;99.90;;;;;;5058485;28;20443;-42
2022/01/07 07:22:40;;;;;;;7.67;4.17;;;4.20;99.90;;;;;;5063298;28;20850;-42
2022/01/07 07:25:06;;;;;;;3.97;3.67;;;4.20;99.90;;;;;;5065608;28;20184;-43
2022/01/07 07:27:31;;;;;;;6.90;4.23;;;4.20;99.90;;;;;;5067984;28;20181;-42
2022/01/07 07:29:57;;;;;;;6.10;4.47;;;4.30;99.90;;;;;;5067185;28;20489;-43
2022/01/07 07:32:27;;;;;;;5.20;4.70;;;4.40;99.90;;;;;;5067333;28;20189;-42
2022/01/07 07:35:02;;;;;;;5.20;4.70;;;4.30;99.90;;;;;;5067106;28;20189;-41
2022/01/07 07:37:28;;;;;;;4.40;3.93;;;4.30;99.90;;;;;;5060114;28;20508;-42
2022/01/07 07:39:54;;;;;;;5.47;4.93;;;4.40;99.90;;;;;;5067174;28;20879;-43
2022/01/07 07:42:20;;;;;;;7.40;4.70;;;4.40;99.90;;;;;;5067588;28;20627;-46
2022/01/07 07:44:46;;;;;;;6.10;5.50;;;4.60;99.90;;;;;;5068217;28;20419;-42
2022/01/07 07:47:11;;;;;;;6.07;5.37;;;4.30;99.90;;;;;;5066096;28;20193;-42
2022/01/07 07:49:37;;;;;;;8.67;4.90;;;4.50;99.90;;;;;;5067371;28;20220;-42
2022/01/07 07:52:04;;;;;;;4.70;4.30;;;4.50;99.90;;;;;;5081335;28;20224;-43
2022/01/07 07:54:30;;;;;;;8.70;5.13;;;4.50;99.90;;;;;;5067747;28;20186;-42
2022/01/07 07:56:58;;;;;;;7.87;5.93;;;4.50;99.90;;;;;;5067422;28;20446;-42
2022/01/07 07:59:24;;;;;;;11.87;7.03;;;4.50;99.90;;;;;;5067546;28;20683;-42
2022/01/07 08:01:50;;;;;;;7.37;5.23;;;4.40;99.90;;;;;;5064887;28;21049;-43
2022/01/07 08:04:18;;;;;;;6.77;5.53;;;4.40;99.90;;;;;;5067748;28;20438;-42
2022/01/07 08:06:44;;;;;;;5.40;4.73;;;4.60;99.90;;;;;;5056970;28;20534;-45
2022/01/07 08:09:10;;;;;;;6.13;5.30;;;4.60;99.90;;;;;;5067376;28;20506;-42
2022/01/07 08:11:48;;;;;;;5.30;4.90;;;4.50;99.90;;;;;;5065521;28;20222;-43
2022/01/07 08:16:59;;;;;;;7.10;5.97;;;4.50;99.90;;;;;;5085916;28;20418;-42
2022/01/07 08:19:25;;;;;;;7.63;5.43;;;4.60;99.90;;;;;;5087336;28;20499;-45
2022/01/07 08:21:50;;;;;;;6.03;4.70;;;4.60;99.90;;;;;;5063938;28;20511;-43
2022/01/07 08:24:16;;;;;;;5.90;5.30;;;4.60;99.90;;;;;;5066552;28;20563;-42
2022/01/07 08:26:42;;;;;;;9.43;5.87;;;4.60;99.90;;;;;;5066615;28;20234;-42
2022/01/07 08:29:10;;;;;;;7.33;5.30;;;4.60;99.90;;;;;;5062507;28;20393;-41
2022/01/07 08:36:49;;;;;;;9.27;5.13;;;4.50;99.90;;;;;;5053435;28;20590;-44
2022/01/07 08:39:15;;;;;;;8.07;5.73;;;4.80;99.90;;;;;;5063106;28;20424;-43
2022/01/07 08:41:42;;;;;;;8.17;5.10;;;4.60;99.90;;;;;;5066470;28;20428;-43
2022/01/07 08:44:09;;;;;;;7.10;5.00;;;4.70;99.90;;;;;;5066874;28;20235;-43
2022/01/07 08:46:35;;;;;;;5.27;4.87;;;4.50;99.90;;;;;;5067016;28;20878;-41
2022/01/07 08:49:03;;;;;;;6.60;4.77;;;4.70;99.90;;;;;;5066752;28;20458;-45
2022/01/07 08:51:29;;;;;;;7.00;4.93;;;4.70;99.90;;;;;;5056088;28;20428;-44
2022/01/07 08:53:55;;;;;;;6.03;5.13;;;4.70;99.90;;;;;;5063096;28;20423;-43
2022/01/07 08:56:24;;;;;;;6.60;5.37;;;4.60;99.90;;;;;;5066580;28;20201;-43
2022/01/07 08:58:55;;;;;;;6.80;4.90;;;5.00;99.90;;;;;;5066961;28;20503;-42
2022/01/07 09:01:22;;;;;;;5.97;5.03;;;4.70;99.90;;;;;;5066002;28;20518;-42
2022/01/07 09:03:48;;;;;;;7.63;4.80;;;4.80;99.90;;;;;;5066877;28;20435;-42
2022/01/07 09:06:14;;;;;;;6.17;4.90;;;4.90;99.90;;;;;;5059448;28;20485;-43
2022/01/07 09:08:39;;;;;;;5.33;4.37;;;5.00;99.90;;;;;;5060292;28;20189;-42
2022/01/07 09:11:05;;;;;;;6.87;5.10;;;4.70;99.90;;;;;;5065731;28;20205;-45
2022/01/07 09:13:31;;;;;;;6.27;5.63;;;4.70;99.90;;;;;;5066807;28;20227;-42
2022/01/07 09:15:57;;;;;;;7.33;4.60;;;4.90;99.90;;;;;;5066592;28;20196;-43
2022/01/07 09:18:23;;;;;;;5.83;4.13;;;4.90;99.90;;;;;;5084380;28;20188;-42
2022/01/07 09:20:49;;;;;;;5.37;4.50;;;5.10;99.90;;;;;;5080707;28;20422;-42
2022/01/07 09:23:16;;;;;;;6.80;4.50;;;4.90;99.90;;;;;;5057902;28;20423;-42
2022/01/07 09:25:42;;;;;;;7.47;5.40;;;5.10;99.90;;;;;;5078605;28;20455;-45
2022/01/07 09:28:09;;;;;;;6.17;5.00;;;4.90;99.90;;;;;;5064891;28;20956;-42
2022/01/07 09:30:36;;;;;;;5.87;5.27;;;5.00;99.90;;;;;;5065928;28;20467;-43
2022/01/07 09:33:02;;;;;;;5.70;4.93;;;5.10;99.90;;;;;;5065334;28;20833;-43
2022/01/07 09:35:28;;;;;;;5.10;4.43;;;5.00;99.90;;;;;;5066316;28;20925;-45
2022/01/07 09:37:54;;;;;;;5.27;4.43;;;5.30;99.90;;;;;;5057834;28;20443;-43
2022/01/07 09:40:20;;;;;;;9.23;5.00;;;5.00;99.90;;;;;;5069527;28;20181;-41
2022/01/07 09:43:05;;;;;;;8.77;4.87;;;5.30;99.90;;;;;;5069823;28;20546;-43
2022/01/07 09:45:34;;;;;;;4.73;4.10;;;5.40;99.90;;;;;;5070028;28;20427;-43
2022/01/07 09:48:03;;;;;;;6.63;4.53;;;5.20;99.90;;;;;;5056442;28;20876;-43
2022/01/07 09:50:30;;;;;;;5.90;4.63;;;5.00;99.90;;;;;;5069355;28;20462;-42
2022/01/07 09:52:57;;;;;;;5.70;4.07;;;5.20;99.90;;;;;;5061390;28;20435;-42
2022/01/07 09:55:22;;;;;;;4.97;4.17;;;5.10;99.90;;;;;;5069758;28;20777;-42
2022/01/07 09:57:49;;;;;;;6.57;4.20;;;5.30;99.90;;;;;;5070197;28;20438;-42
2022/01/07 10:00:15;;;;;;;5.07;3.83;;;5.30;99.90;;;;;;5068701;28;20268;-42
2022/01/07 10:03:05;;;;;;;5.40;3.70;;;5.10;99.90;;;;;;5069472;28;20925;-43
2022/01/07 10:05:31;;;;;;;5.93;4.50;;;5.10;99.90;;;;;;5069466;28;20435;-43
2022/01/07 10:08:15;;;;;;;4.17;3.50;;;5.20;99.90;;;;;;5060058;28;20504;-44
2022/01/07 10:10:40;;;;;;;6.63;3.93;;;4.90;99.90;;;;;;5051928;28;20631;-41
2022/01/07 10:13:06;;;;;;;6.17;4.00;;;5.00;99.90;;;;;;5069236;28;20431;-42
2022/01/07 10:15:34;;;;;;;3.63;3.33;;;5.00;99.90;;;;;;5069189;28;20212;-42
2022/01/07 10:18:04;;;;;;;6.67;4.00;;;5.30;99.90;;;;;;5083782;28;20181;-42
2022/01/07 10:20:37;;;;;;;5.07;3.80;;;5.20;99.90;;;;;;5088784;28;20417;-45
2022/01/07 10:23:06;;;;;;;4.00;3.60;;;5.20;99.90;;;;;;5061065;28;20442;-43
2022/01/07 10:25:34;;;;;;;3.53;3.20;;;5.20;99.90;;;;;;5068616;28;20430;-42
2022/01/07 10:28:01;;;;;;;4.90;4.40;;;5.10;99.90;;;;;;5068883;28;20431;-42
2022/01/07 10:30:32;;;;;;;5.80;4.63;;;5.20;99.90;;;;;;5058188;28;20639;-43
2022/01/07 10:32:58;;;;;;;5.97;4.50;;;5.00;99.90;;;;;;5065031;28;20477;-43
2022/01/07 10:35:25;;;;;;;7.17;4.30;;;5.10;99.90;;;;;;5068585;28;20918;-43
2022/01/07 10:37:58;;;;;;;3.93;3.60;;;5.30;99.90;;;;;;5061847;28;20442;-43
2022/01/07 10:40:38;;;;;;;4.53;4.07;;;5.30;99.90;;;;;;5068163;28;20445;-42
2022/01/07 10:43:15;;;;;;;4.37;3.97;;;5.10;99.90;;;;;;5064078;28;20439;-42
2022/01/07 10:45:45;;;;;;;4.83;3.67;;;5.30;99.90;;;;;;5072090;28;20458;-43
2022/01/07 10:48:12;;;;;;;4.83;4.43;;;5.00;99.90;;;;;;5088159;28;20426;-42
2022/01/07 10:50:50;;;;;;;5.93;4.73;;;5.00;99.90;;;;;;5088123;28;20473;-42
2022/01/07 10:53:17;;;;;;;3.97;3.60;;;5.00;99.90;;;;;;5064315;28;20497;-42
2022/01/07 10:56:14;;;;;;;4.40;3.67;;;5.10;99.90;;;;;;5068355;28;20431;-43
2022/01/07 10:58:45;;;;;;;6.20;3.50;;;5.20;99.90;;;;;;5067314;28;20435;-43
2022/01/07 11:01:20;;;;;;;5.33;3.70;;;5.10;99.90;;;;;;5067890;28;20407;-42
2022/01/07 11:03:54;;;;;;;4.00;3.60;;;4.90;99.90;;;;;;5068291;28;20419;-43
2022/01/07 11:06:22;;;;;;;4.43;3.90;;;5.20;99.90;;;;;;5067373;28;20981;-42
2022/01/07 11:08:53;;;;;;;5.80;3.80;;;5.30;99.90;;;;;;5054658;28;20808;-43
2022/01/07 11:11:21;;;;;;;4.30;3.90;;;5.30;99.90;;;;;;5067353;28;20462;-43
2022/01/07 11:13:47;;;;;;;4.43;3.60;;;5.30;99.90;;;;;;5066985;28;20439;-46
2022/01/07 11:16:13;;;;;;;4.20;3.37;;;5.40;99.90;;;;;;5068792;28;20427;-44
2022/01/07 11:18:41;;;;;;;4.37;3.90;;;5.40;99.90;;;;;;5087125;28;20762;-43
2022/01/07 11:21:08;;;;;;;4.40;3.90;;;5.20;99.90;;;;;;5087915;28;20668;-43
2022/01/07 11:23:38;;;;;;;4.90;3.80;;;5.50;99.90;;;;;;5057148;28;20817;-42
2022/01/07 11:26:09;;;;;;;3.87;3.57;;;5.20;99.90;;;;;;5066320;28;20439;-45
2022/01/07 11:28:36;;;;;;;3.40;3.10;;;5.30;99.90;;;;;;5066621;28;21003;-43
2022/01/07 11:31:10;;;;;;;4.07;3.77;;;5.60;99.90;;;;;;5067276;28;20516;-43
2022/01/07 11:33:36;;;;;;;4.40;3.40;;;5.60;99.90;;;;;;5066617;28;20677;-43
2022/01/07 11:36:02;;;;;;;4.10;3.70;;;5.50;99.90;;;;;;5067612;28;20423;-44
2022/01/07 11:38:43;;;;;;;8.63;3.43;;;5.60;99.90;;;;;;5054605;28;20432;-43
2022/01/07 11:41:14;;;;;;;5.70;4.13;;;5.60;99.90;;;;;;5064865;28;20431;-44
2022/01/07 11:43:43;;;;;;;5.23;4.00;;;5.50;99.90;;;;;;5067890;28;20794;-44
2022/01/07 11:46:30;;;;;;;4.30;3.90;;;5.50;99.90;;;;;;5067463;28;20428;-43
2022/01/07 11:48:58;;;;;;;4.93;4.10;;;5.50;99.90;;;;;;5067651;28;20426;-44
2022/01/07 11:51:38;;;;;;;4.80;4.03;;;5.70;99.90;;;;;;5066678;28;20467;-42
2022/01/07 11:54:05;;;;;;;4.70;4.20;;;5.70;99.90;;;;;;5057374;28;20541;-43
2022/01/07 11:56:32;;;;;;;10.03;4.00;;;5.60;99.90;;;;;;5065960;28;20886;-42
2022/01/07 11:59:09;;;;;;;4.73;4.10;;;5.30;99.90;;;;;;5068421;28;20424;-45
2022/01/07 12:01:37;;;;;;;4.37;3.97;;;5.50;99.90;;;;;;5066019;28;20506;-45
2022/01/07 12:04:15;;;;;;;4.83;4.13;;;5.50;99.90;;;;;;5072853;28;20426;-42
2022/01/07 12:06:41;;;;;;;4.90;3.83;;;5.20;99.90;;;;;;5069971;28;20443;-42
2022/01/07 12:09:10;;;;;;;6.70;4.07;;;5.20;99.90;;;;;;5057909;28;20427;-42
2022/01/07 12:11:37;;;;;;;4.90;4.40;;;5.60;99.90;;;;;;5074608;28;20515;-42
2022/01/07 12:14:06;;;;;;;4.33;3.93;;;5.40;99.90;;;;;;5087303;28;20510;-42
2022/01/07 12:16:34;;;;;;;4.73;3.93;;;5.50;99.90;;;;;;5072292;28;20467;-43
2022/01/07 12:19:18;;;;;;;4.03;3.67;;;5.40;99.90;;;;;;5067030;28;20502;-42
2022/01/07 12:21:45;;;;;;;4.53;3.77;;;5.30;99.90;;;;;;5067057;28;20415;-43
2022/01/07 12:24:14;;;;;;;10.23;3.40;;;5.50;99.90;;;;;;5055017;28;20419;-45
2022/01/07 12:26:40;;;;;;;6.40;3.73;;;5.70;99.90;;;;;;5059798;28;20960;-43
2022/01/07 12:29:15;;;;;;;4.57;4.03;;;5.50;99.90;;;;;;5067170;28;20521;-42
2022/01/07 12:31:53;;;;;;;4.50;3.30;;;5.60;99.90;;;;;;5057504;28;20929;-43
2022/01/07 12:34:30;;;;;;;4.13;3.70;;;5.50;99.90;;;;;;5064121;28;20489;-43
2022/01/07 12:36:58;;;;;;;4.30;3.40;;;5.50;99.90;;;;;;5080445;28;20443;-42
2022/01/07 12:39:36;;;;;;;5.50;3.60;;;5.50;99.90;;;;;;5061239;28;20427;-44
2022/01/07 12:42:03;;;;;;;3.93;3.50;;;5.80;99.90;;;;;;5066975;28;20430;-43
2022/01/07 12:44:40;;;;;;;3.97;3.63;;;5.70;99.90;;;;;;5069478;28;20476;-42
2022/01/07 12:47:07;;;;;;;4.27;3.73;;;5.60;99.90;;;;;;5075958;28;20488;-44
2022/01/07 12:49:55;;;;;;;5.60;3.50;;;5.70;99.90;;;;;;5074605;28;20462;-43
2022/01/07 12:52:38;;;;;;;4.73;3.53;;;5.60;99.90;;;;;;5071068;28;20435;-44
2022/01/07 12:55:17;;;;;;;5.53;3.17;;;5.90;99.90;;;;;;5067039;28;20509;-43
2022/01/07 12:57:48;;;;;;;3.50;3.10;;;5.90;99.90;;;;;;5058582;28;20825;-43
2022/01/07 13:00:17;;;;;;;4.60;3.40;;;5.90;99.90;;;;;;5066319;28;20423;-43
2022/01/07 13:02:49;;;;;;;7.60;3.80;;;6.00;99.90;;;;;;5066435;28;20431;-43
2022/01/07 13:05:19;;;;;;;6.10;3.57;;;5.60;99.90;;;;;;5067557;28;20561;-44
2022/01/07 13:07:51;;;;;;;4.43;3.57;;;6.00;99.90;;;;;;5064142;28;20933;-43
2022/01/07 13:10:20;;;;;;;4.30;3.53;;;5.70;99.90;;;;;;5065076;28;20524;-43